Time;durP1;ratioP1;P1;durP2;ratioP2;P2;SDS_P1;SDS_P2;PMS_P1;PMS_P2;Temp;Humidity;BMP_temperature;BMP_pressure;BME280_temperature;BME280_humidity;BME280_pressure;Samples;Min_cycle;Max_cycle;Signal;HPM_P1;HPM_P2
2021/12/06 00:01:22;;;;;;;8.45;7.65;;;4.40;99.90;;;;;;5081405;28;20210;-83
2021/12/06 00:03:56;;;;;;;10.15;9.05;;;4.40;99.90;;;;;;5090726;28;20192;-82
2021/12/06 00:06:26;;;;;;;10.05;9.05;;;4.40;99.90;;;;;;5092589;28;20257;-83
2021/12/06 00:08:53;;;;;;;10.57;9.60;;;4.50;99.90;;;;;;5094054;28;20227;-84
2021/12/06 00:11:21;;;;;;;9.75;8.95;;;4.50;99.90;;;;;;5085167;28;20192;-81
2021/12/06 00:13:50;;;;;;;8.80;8.10;;;4.60;99.90;;;;;;5094735;28;20617;-81
2021/12/06 00:16:22;;;;;;;9.00;8.30;;;4.60;99.90;;;;;;5092690;28;20198;-81
2021/12/06 00:18:51;;;;;;;9.52;8.70;;;4.70;99.90;;;;;;5093711;28;20208;-81
2021/12/06 00:21:20;;;;;;;8.30;7.65;;;4.60;99.90;;;;;;5094373;28;20710;-81
2021/12/06 00:23:48;;;;;;;8.57;7.85;;;4.60;99.90;;;;;;5094218;28;20203;-82
2021/12/06 00:26:16;;;;;;;8.60;7.90;;;4.60;99.90;;;;;;5086626;28;20195;-82
2021/12/06 00:28:45;;;;;;;9.25;8.45;;;4.60;99.90;;;;;;5092308;28;20200;-83
2021/12/06 00:31:15;;;;;;;8.20;7.50;;;4.60;99.90;;;;;;5094009;28;20230;-83
2021/12/06 00:33:43;;;;;;;9.20;8.50;;;4.50;99.90;;;;;;5093282;28;20602;-82
2021/12/06 00:36:16;;;;;;;8.82;8.13;;;4.50;99.90;;;;;;5089738;28;20203;-81
2021/12/06 00:38:46;;;;;;;8.68;8.05;;;4.40;99.90;;;;;;5087567;28;20191;-82
2021/12/06 00:41:13;;;;;;;9.07;8.18;;;4.40;99.90;;;;;;5091019;28;20249;-83
2021/12/06 00:43:40;;;;;;;8.57;7.88;;;4.30;99.90;;;;;;5073592;28;20278;-83
2021/12/06 00:46:08;;;;;;;8.95;8.25;;;4.30;99.90;;;;;;5081297;28;20200;-83
2021/12/06 00:48:37;;;;;;;9.75;8.95;;;4.20;99.90;;;;;;5092867;28;20203;-83
2021/12/06 00:51:04;;;;;;;9.90;9.10;;;4.20;99.90;;;;;;5093629;28;20286;-83
2021/12/06 00:53:31;;;;;;;8.45;7.80;;;4.20;99.90;;;;;;5092013;28;20210;-84
2021/12/06 00:55:59;;;;;;;9.82;8.93;;;4.10;99.90;;;;;;5088198;28;20283;-83
2021/12/06 00:58:26;;;;;;;8.60;7.90;;;4.10;99.90;;;;;;5087720;28;20200;-82
2021/12/06 01:00:55;;;;;;;8.35;7.65;;;4.10;99.90;;;;;;5092117;28;20203;-83
2021/12/06 01:03:26;;;;;;;9.30;8.52;;;4.20;99.90;;;;;;5084449;28;20323;-83
2021/12/06 01:05:55;;;;;;;8.48;7.78;;;4.00;99.90;;;;;;5086106;28;20212;-83
2021/12/06 01:08:23;;;;;;;9.10;8.30;;;4.00;99.90;;;;;;5091632;28;20196;-83
2021/12/06 01:10:51;;;;;;;8.30;7.70;;;4.00;99.90;;;;;;5093243;28;20192;-83
2021/12/06 01:13:19;;;;;;;9.52;8.73;;;4.00;99.90;;;;;;5092339;28;20251;-82
2021/12/06 01:15:47;;;;;;;9.48;8.63;;;4.00;99.90;;;;;;5091812;28;20212;-82
2021/12/06 01:18:16;;;;;;;9.10;8.20;;;4.00;99.90;;;;;;5083790;28;20563;-83
2021/12/06 01:20:51;;;;;;;9.60;8.80;;;4.00;99.90;;;;;;5089694;28;20261;-83
2021/12/06 01:23:28;;;;;;;8.98;8.27;;;4.00;99.90;;;;;;5078243;28;20219;-83
2021/12/06 01:26:11;;;;;;;10.25;9.32;;;4.10;99.90;;;;;;5077995;28;20224;-83
2021/12/06 01:29:05;;;;;;;9.18;8.18;;;4.10;99.90;;;;;;5088188;28;20200;-83
2021/12/06 01:31:41;;;;;;;9.50;8.68;;;4.10;99.90;;;;;;5085910;28;20199;-82
2021/12/06 01:39:39;;;;;;;9.75;9.05;;;4.00;99.90;;;;;;5092475;28;20188;-82
2021/12/06 01:42:08;;;;;;;10.75;9.85;;;4.00;99.90;;;;;;5089984;28;20216;-82
2021/12/06 01:44:38;;;;;;;10.68;9.75;;;4.10;99.90;;;;;;5091525;28;20303;-83
2021/12/06 01:47:07;;;;;;;9.73;8.98;;;4.00;99.90;;;;;;5088881;28;20216;-83
2021/12/06 01:49:38;;;;;;;11.77;10.77;;;4.00;99.90;;;;;;5090767;28;20199;-82
2021/12/06 01:52:10;;;;;;;10.60;9.80;;;4.10;99.90;;;;;;5092045;28;20192;-83
2021/12/06 01:54:39;;;;;;;10.30;9.40;;;4.00;99.90;;;;;;5091536;28;20212;-83
2021/12/06 01:57:07;;;;;;;10.88;9.88;;;4.10;99.90;;;;;;5086044;28;20200;-83
2021/12/06 01:59:34;;;;;;;10.13;9.32;;;4.00;99.90;;;;;;5079033;28;20200;-82
2021/12/06 02:02:03;;;;;;;11.00;10.15;;;4.10;99.90;;;;;;5081265;28;20193;-82
2021/12/06 02:04:32;;;;;;;10.48;9.60;;;3.90;99.90;;;;;;5090849;28;20227;-82
2021/12/06 02:07:01;;;;;;;10.57;9.77;;;3.90;99.90;;;;;;5091569;28;20195;-83
2021/12/06 02:09:30;;;;;;;10.93;10.00;;;4.10;99.90;;;;;;5087706;28;20282;-83
2021/12/06 02:12:03;;;;;;;11.23;10.32;;;4.00;99.90;;;;;;5086953;28;20192;-83
2021/12/06 02:14:39;;;;;;;10.52;9.68;;;4.00;99.90;;;;;;5085164;28;20223;-83
2021/12/06 02:17:13;;;;;;;10.80;9.95;;;4.00;99.90;;;;;;5090497;28;22072;-83
2021/12/06 02:19:47;;;;;;;9.88;9.07;;;4.10;99.90;;;;;;5090308;28;20196;-82
2021/12/06 02:22:19;;;;;;;11.27;10.38;;;4.10;99.90;;;;;;5088235;28;20228;-83
2021/12/06 02:24:46;;;;;;;10.68;9.77;;;4.10;99.90;;;;;;5082445;28;20212;-83
2021/12/06 02:27:15;;;;;;;10.48;9.60;;;4.20;99.90;;;;;;5086701;28;20195;-83
2021/12/06 02:29:44;;;;;;;11.40;10.40;;;4.20;99.90;;;;;;5072565;28;20189;-83
2021/12/06 02:32:13;;;;;;;10.25;9.45;;;4.20;99.90;;;;;;5081382;28;20196;-83
2021/12/06 02:34:44;;;;;;;10.98;10.00;;;4.30;99.90;;;;;;5084967;28;20219;-83
2021/12/06 02:37:13;;;;;;;9.95;9.15;;;4.20;99.90;;;;;;5091762;28;20199;-83
2021/12/06 02:39:44;;;;;;;10.73;9.73;;;4.20;99.90;;;;;;5090880;28;20655;-82
2021/12/06 02:42:14;;;;;;;11.05;10.15;;;4.20;99.90;;;;;;5089316;28;20657;-83
2021/12/06 02:44:42;;;;;;;11.43;10.52;;;4.20;99.90;;;;;;5074814;28;20239;-83
2021/12/06 02:47:10;;;;;;;11.65;10.75;;;4.10;99.90;;;;;;5090983;28;20614;-83
2021/12/06 02:49:38;;;;;;;11.23;10.32;;;4.10;99.90;;;;;;5092997;28;20536;-83
2021/12/06 02:52:06;;;;;;;12.70;11.48;;;4.20;99.90;;;;;;5094409;28;20206;-83
2021/12/06 02:54:34;;;;;;;12.52;11.43;;;4.10;99.90;;;;;;5085676;28;20277;-82
2021/12/06 02:57:21;;;;;;;13.10;12.00;;;4.10;99.90;;;;;;5086463;28;20279;-82
2021/12/06 02:59:49;;;;;;;13.00;12.00;;;4.10;99.90;;;;;;5079837;28;20239;-83
2021/12/06 03:02:18;;;;;;;12.00;11.00;;;4.00;99.90;;;;;;5079882;28;20193;-82
2021/12/06 03:04:47;;;;;;;12.65;11.55;;;4.00;99.90;;;;;;5090496;28;20230;-82
2021/12/06 03:07:19;;;;;;;13.38;12.18;;;3.90;99.90;;;;;;5088676;28;20246;-83
2021/12/06 03:09:51;;;;;;;12.07;11.10;;;3.90;99.90;;;;;;5075845;28;20196;-83
2021/12/06 03:12:23;;;;;;;13.40;12.20;;;4.00;99.90;;;;;;5088057;28;20207;-83
2021/12/06 03:14:53;;;;;;;12.32;11.23;;;3.90;99.90;;;;;;5073772;28;20756;-84
2021/12/06 03:17:22;;;;;;;12.38;11.38;;;3.90;99.90;;;;;;5089196;28;20540;-83
2021/12/06 03:19:50;;;;;;;12.68;11.57;;;4.00;99.90;;;;;;5072110;28;20193;-83
2021/12/06 03:22:18;;;;;;;13.48;12.35;;;4.00;99.90;;;;;;5082580;28;20602;-84
2021/12/06 03:24:47;;;;;;;13.90;12.80;;;4.00;99.90;;;;;;5087855;28;20216;-83
2021/12/06 03:27:15;;;;;;;14.15;12.48;;;4.00;99.90;;;;;;5087272;28;20551;-84
2021/12/06 03:29:44;;;;;;;14.98;13.68;;;4.00;99.90;;;;;;5089729;28;20291;-84
2021/12/06 03:32:12;;;;;;;15.05;13.85;;;4.00;99.90;;;;;;5091412;28;20207;-84
2021/12/06 03:34:39;;;;;;;15.32;13.95;;;3.90;99.90;;;;;;5091604;28;20224;-81
2021/12/06 03:37:08;;;;;;;15.25;13.95;;;3.90;99.90;;;;;;5089669;28;20209;-81
2021/12/06 03:39:41;;;;;;;15.68;14.40;;;3.80;99.90;;;;;;5088560;28;20270;-82
2021/12/06 03:42:11;;;;;;;15.77;14.40;;;3.90;99.90;;;;;;5094866;28;20200;-81
2021/12/06 03:44:38;;;;;;;15.20;13.93;;;3.90;99.90;;;;;;5095624;28;20278;-80
2021/12/06 03:47:10;;;;;;;15.45;14.13;;;3.90;99.90;;;;;;5094545;28;20382;-82
2021/12/06 03:49:38;;;;;;;15.90;14.50;;;3.90;99.90;;;;;;5092269;28;20203;-81
2021/12/06 03:52:06;;;;;;;15.30;14.10;;;4.00;99.90;;;;;;5092474;28;20237;-82
2021/12/06 03:54:33;;;;;;;16.67;15.20;;;4.00;99.90;;;;;;5091434;28;20285;-82
2021/12/06 03:57:02;;;;;;;15.95;14.45;;;4.10;99.90;;;;;;5090083;28;20196;-83
2021/12/06 03:59:30;;;;;;;16.17;14.80;;;4.10;99.90;;;;;;5092387;28;20208;-82
2021/12/06 04:01:57;;;;;;;15.30;14.10;;;4.10;99.90;;;;;;5091018;28;20203;-83
2021/12/06 04:04:27;;;;;;;16.65;15.15;;;4.20;99.90;;;;;;5077453;28;20239;-81
2021/12/06 04:06:55;;;;;;;15.80;14.48;;;4.20;99.90;;;;;;5094649;28;20231;-81
2021/12/06 04:09:22;;;;;;;16.48;14.98;;;4.20;99.90;;;;;;5094649;28;20204;-82
2021/12/06 04:11:50;;;;;;;15.90;14.50;;;4.10;99.90;;;;;;5094247;28;20200;-83
2021/12/06 04:14:18;;;;;;;16.85;15.15;;;4.10;99.90;;;;;;5088434;28;20219;-83
2021/12/06 04:16:46;;;;;;;16.90;15.30;;;4.10;99.90;;;;;;5095001;28;20200;-82
2021/12/06 04:19:14;;;;;;;16.83;15.23;;;4.00;99.90;;;;;;5084194;28;20203;-82
2021/12/06 04:21:44;;;;;;;15.63;14.23;;;4.00;99.90;;;;;;5095656;28;20196;-82
2021/12/06 04:24:12;;;;;;;15.82;14.27;;;4.10;99.90;;;;;;5096831;28;20298;-84
2021/12/06 04:26:39;;;;;;;17.52;15.93;;;4.00;99.90;;;;;;5088476;28;20556;-82
2021/12/06 04:29:07;;;;;;;17.20;15.68;;;4.00;99.90;;;;;;5093749;28;20208;-82
2021/12/06 04:31:43;;;;;;;16.88;15.40;;;3.90;99.90;;;;;;5088351;28;20204;-82
2021/12/06 04:34:12;;;;;;;16.90;15.30;;;3.90;99.90;;;;;;5095034;28;20283;-82
2021/12/06 04:36:40;;;;;;;16.40;14.95;;;3.90;99.90;;;;;;5090443;28;20965;-83
2021/12/06 04:39:10;;;;;;;17.15;15.55;;;3.80;99.90;;;;;;5086311;28;20200;-82
2021/12/06 04:41:38;;;;;;;16.50;15.07;;;3.80;99.90;;;;;;5090514;28;20232;-81
2021/12/06 04:44:06;;;;;;;17.00;15.48;;;3.90;99.90;;;;;;5087301;28;20219;-83
2021/12/06 04:46:33;;;;;;;16.63;15.13;;;3.80;99.90;;;;;;5108929;28;20200;-83
2021/12/06 04:49:00;;;;;;;16.40;15.00;;;3.80;99.90;;;;;;5112725;28;20196;-82
2021/12/06 04:51:28;;;;;;;16.80;15.30;;;3.80;99.90;;;;;;5111229;28;20199;-86
2021/12/06 04:53:55;;;;;;;17.77;16.17;;;3.90;99.90;;;;;;5102476;28;20235;-83
2021/12/06 04:56:28;;;;;;;17.98;16.27;;;3.80;99.90;;;;;;5111888;28;20187;-82
2021/12/06 04:59:01;;;;;;;20.55;18.70;;;3.80;99.90;;;;;;5103132;28;20180;-82
2021/12/06 05:01:31;;;;;;;18.88;17.10;;;3.50;99.90;;;;;;5088222;28;20208;-81
2021/12/06 05:04:00;;;;;;;21.60;19.63;;;3.30;99.90;;;;;;5095601;28;20361;-80
2021/12/06 05:06:32;;;;;;;22.75;20.75;;;3.20;99.90;;;;;;5093801;28;20551;-82
2021/12/06 05:09:04;;;;;;;22.25;20.15;;;3.10;99.90;;;;;;5078489;28;20220;-80
2021/12/06 05:11:32;;;;;;;22.27;20.20;;;3.00;99.90;;;;;;5091103;28;20184;-79
2021/12/06 05:14:02;;;;;;;20.60;18.73;;;2.90;99.90;;;;;;5085777;28;20276;-79
2021/12/06 05:16:29;;;;;;;21.40;19.30;;;2.90;99.90;;;;;;5080179;28;20201;-80
2021/12/06 05:18:56;;;;;;;21.17;19.17;;;2.90;99.90;;;;;;5091892;28;20199;-83
2021/12/06 05:21:24;;;;;;;20.17;18.27;;;2.90;99.90;;;;;;5087989;28;20277;-79
2021/12/06 05:23:51;;;;;;;20.73;18.60;;;2.80;99.90;;;;;;5085723;28;20227;-79
2021/12/06 05:26:19;;;;;;;19.40;17.70;;;2.90;99.90;;;;;;5091120;28;20227;-80
2021/12/06 05:28:50;;;;;;;19.42;17.58;;;3.00;99.90;;;;;;5086091;28;20533;-80
2021/12/06 05:31:20;;;;;;;20.00;18.20;;;3.00;99.90;;;;;;5087380;28;20192;-78
2021/12/06 05:33:53;;;;;;;19.17;17.45;;;3.10;99.90;;;;;;5089487;28;20298;-79
2021/12/06 05:36:21;;;;;;;21.33;19.40;;;3.10;99.90;;;;;;5078023;28;20654;-79
2021/12/06 05:38:50;;;;;;;21.65;19.65;;;3.00;99.90;;;;;;5089492;28;20555;-78
2021/12/06 05:41:17;;;;;;;20.08;18.15;;;3.00;99.90;;;;;;5087822;28;20278;-78
2021/12/06 05:43:44;;;;;;;23.13;21.02;;;3.10;99.90;;;;;;5084894;28;20315;-78
2021/12/06 05:46:13;;;;;;;22.77;20.65;;;3.20;99.90;;;;;;5079807;28;20200;-80
2021/12/06 05:48:40;;;;;;;21.27;19.08;;;3.10;99.90;;;;;;5082281;28;20203;-79
2021/12/06 05:51:07;;;;;;;18.92;17.08;;;3.20;99.90;;;;;;5079053;28;20271;-80
2021/12/06 05:53:35;;;;;;;21.42;19.33;;;3.30;99.90;;;;;;5063172;28;20340;-78
2021/12/06 05:56:02;;;;;;;20.13;18.10;;;3.40;99.90;;;;;;5081351;28;20195;-79
2021/12/06 05:58:31;;;;;;;21.52;19.42;;;3.50;99.90;;;;;;5085712;28;20651;-80
2021/12/06 06:00:59;;;;;;;21.80;19.70;;;3.60;99.90;;;;;;5085526;28;20340;-79
2021/12/06 06:03:27;;;;;;;22.08;19.98;;;3.60;99.90;;;;;;5084613;28;20223;-80
2021/12/06 06:05:55;;;;;;;21.60;19.55;;;3.70;99.90;;;;;;5084041;28;20200;-80
2021/12/06 06:08:22;;;;;;;18.98;17.20;;;3.70;99.90;;;;;;5081133;28;20195;-79
2021/12/06 06:10:51;;;;;;;18.80;16.95;;;3.80;99.90;;;;;;5081122;28;20219;-79
2021/12/06 06:13:19;;;;;;;17.92;16.23;;;3.90;99.90;;;;;;5087795;28;20236;-80
2021/12/06 06:15:50;;;;;;;18.23;16.63;;;3.90;99.90;;;;;;5084924;28;20202;-79
2021/12/06 06:18:17;;;;;;;18.33;16.73;;;4.00;99.90;;;;;;5087055;28;20191;-79
2021/12/06 06:20:48;;;;;;;18.88;17.23;;;4.00;99.90;;;;;;5088614;28;20609;-80
2021/12/06 06:23:15;;;;;;;18.30;16.60;;;3.90;99.90;;;;;;5084452;28;20215;-79
2021/12/06 06:25:42;;;;;;;18.05;16.35;;;3.90;99.90;;;;;;5088391;28;21062;-79
2021/12/06 06:28:09;;;;;;;18.00;16.40;;;4.00;99.90;;;;;;5083466;28;20200;-80
2021/12/06 06:30:37;;;;;;;18.13;16.45;;;4.00;99.90;;;;;;5077733;28;20195;-80
2021/12/06 06:33:05;;;;;;;18.75;17.02;;;4.00;99.90;;;;;;5083090;28;20215;-79
2021/12/06 06:35:32;;;;;;;18.30;16.50;;;4.00;99.90;;;;;;5087218;28;20576;-85
2021/12/06 06:38:01;;;;;;;18.27;16.58;;;4.00;99.90;;;;;;5075544;28;20215;-79
2021/12/06 06:40:28;;;;;;;19.30;17.60;;;4.00;99.90;;;;;;5088702;28;21582;-79
2021/12/06 06:42:55;;;;;;;18.27;16.58;;;4.00;99.90;;;;;;5087202;28;20215;-79
2021/12/06 06:45:23;;;;;;;18.20;16.52;;;4.10;99.90;;;;;;5080215;28;20259;-79
2021/12/06 06:47:51;;;;;;;17.73;16.02;;;4.10;99.90;;;;;;5085197;28;20203;-79
2021/12/06 06:50:19;;;;;;;18.73;17.02;;;4.10;99.90;;;;;;5090276;28;20291;-79
2021/12/06 06:52:46;;;;;;;19.83;18.02;;;4.10;99.90;;;;;;5084213;28;20287;-79
2021/12/06 06:55:15;;;;;;;18.25;16.55;;;4.00;99.90;;;;;;5081410;28;20203;-79
2021/12/06 06:57:43;;;;;;;19.48;17.50;;;4.00;99.90;;;;;;5079560;28;20218;-79
2021/12/06 07:00:14;;;;;;;19.80;18.00;;;4.00;99.90;;;;;;5080396;28;20207;-79
2021/12/06 07:02:42;;;;;;;19.70;17.60;;;3.90;99.90;;;;;;5084336;28;20203;-79
2021/12/06 07:05:10;;;;;;;20.40;18.50;;;3.90;99.90;;;;;;5089297;28;20223;-79
2021/12/06 07:07:38;;;;;;;18.70;17.00;;;3.90;99.90;;;;;;5074337;28;20196;-79
2021/12/06 07:10:07;;;;;;;19.63;17.77;;;3.90;99.90;;;;;;5091065;28;20280;-79
2021/12/06 07:12:42;;;;;;;20.65;18.08;;;3.90;99.90;;;;;;5089048;28;20290;-79
2021/12/06 07:15:12;;;;;;;19.23;17.42;;;3.90;99.90;;;;;;5093365;28;20203;-79
2021/12/06 07:17:39;;;;;;;19.98;18.17;;;3.90;99.90;;;;;;5093440;28;20206;-79
2021/12/06 07:20:07;;;;;;;20.08;18.27;;;3.90;99.90;;;;;;5094649;28;20222;-79
2021/12/06 07:22:35;;;;;;;20.35;18.30;;;3.90;99.90;;;;;;5088688;28;20625;-79
2021/12/06 07:25:02;;;;;;;19.48;17.67;;;4.00;99.90;;;;;;5074232;28;20220;-79
2021/12/06 07:27:29;;;;;;;19.95;18.05;;;4.00;99.90;;;;;;5090331;28;20199;-79
2021/12/06 07:29:58;;;;;;;19.13;17.25;;;4.00;99.90;;;;;;5089583;28;20203;-79
2021/12/06 07:32:25;;;;;;;19.38;17.55;;;4.00;99.90;;;;;;5086891;28;20196;-79
2021/12/06 07:34:52;;;;;;;19.15;17.25;;;4.00;99.90;;;;;;5089249;28;20678;-80
2021/12/06 07:37:19;;;;;;;18.95;17.08;;;4.00;99.90;;;;;;5086062;28;20199;-79
2021/12/06 07:39:46;;;;;;;20.02;17.98;;;4.00;99.90;;;;;;5090661;28;20610;-79
2021/12/06 07:42:13;;;;;;;19.25;17.20;;;4.00;99.90;;;;;;5090283;28;20555;-79
2021/12/06 07:44:41;;;;;;;18.90;17.05;;;4.00;99.90;;;;;;5090011;28;20679;-76
2021/12/06 07:47:11;;;;;;;17.38;15.73;;;4.00;99.90;;;;;;5088236;28;20233;-77
2021/12/06 07:49:38;;;;;;;19.13;17.23;;;4.00;99.90;;;;;;5083632;28;20219;-77
2021/12/06 07:52:06;;;;;;;18.63;16.83;;;4.00;99.90;;;;;;5089195;28;20199;-79
2021/12/06 07:54:33;;;;;;;20.17;17.40;;;4.00;99.90;;;;;;5079348;28;20220;-79
2021/12/06 07:57:01;;;;;;;18.55;16.85;;;4.00;99.90;;;;;;5089734;28;20223;-79
2021/12/06 07:59:29;;;;;;;19.95;18.05;;;4.10;99.90;;;;;;5085651;28;20208;-78
2021/12/06 08:01:56;;;;;;;18.75;17.05;;;4.00;99.90;;;;;;5090936;28;20196;-77
2021/12/06 08:04:24;;;;;;;19.27;17.48;;;4.00;99.90;;;;;;5080993;28;20227;-79
2021/12/06 08:06:51;;;;;;;19.05;17.02;;;4.10;99.90;;;;;;5083686;28;20559;-84
2021/12/06 08:09:18;;;;;;;20.00;18.05;;;4.00;99.90;;;;;;5089151;28;20227;-79
2021/12/06 08:11:45;;;;;;;23.42;21.17;;;4.00;99.90;;;;;;5079062;28;20242;-79
2021/12/06 08:14:12;;;;;;;22.25;19.95;;;4.00;99.90;;;;;;5086790;28;20269;-80
2021/12/06 08:16:43;;;;;;;19.45;17.55;;;4.00;99.90;;;;;;5086422;28;20279;-79
2021/12/06 08:19:11;;;;;;;18.75;16.85;;;4.10;99.90;;;;;;5089125;28;20200;-79
2021/12/06 08:21:40;;;;;;;20.00;17.98;;;4.10;99.90;;;;;;5090381;28;20196;-79
2021/12/06 08:24:08;;;;;;;19.17;17.23;;;4.10;99.90;;;;;;5087788;28;20223;-79
2021/12/06 08:26:39;;;;;;;21.33;17.95;;;4.20;99.90;;;;;;5086247;28;20283;-80
2021/12/06 08:29:12;;;;;;;19.00;16.77;;;4.20;99.90;;;;;;5068312;28;20275;-80
2021/12/06 08:31:41;;;;;;;20.17;17.88;;;4.30;99.90;;;;;;5084077;28;20269;-77
2021/12/06 08:34:09;;;;;;;19.80;17.80;;;4.30;99.90;;;;;;5085502;28;20227;-78
2021/12/06 08:36:36;;;;;;;20.58;17.90;;;4.40;99.90;;;;;;5089865;28;20202;-78
2021/12/06 08:39:05;;;;;;;20.38;18.27;;;4.40;99.90;;;;;;5091158;28;20199;-78
2021/12/06 08:41:33;;;;;;;19.48;16.70;;;4.40;99.90;;;;;;5090042;28;20643;-77
2021/12/06 08:44:01;;;;;;;20.55;18.42;;;4.50;99.90;;;;;;5078832;28;20220;-78
2021/12/06 08:46:32;;;;;;;18.45;16.42;;;4.60;99.90;;;;;;5088115;28;20196;-78
2021/12/06 08:49:02;;;;;;;18.75;16.75;;;4.70;99.90;;;;;;5091214;28;20291;-78
2021/12/06 08:51:32;;;;;;;17.35;15.55;;;4.70;99.90;;;;;;5092261;28;20199;-78
2021/12/06 08:54:00;;;;;;;18.52;16.58;;;4.80;99.90;;;;;;5089475;28;20240;-79
2021/12/06 08:56:29;;;;;;;21.30;18.33;;;4.90;99.90;;;;;;5090962;28;20204;-78
2021/12/06 08:58:57;;;;;;;22.20;17.92;;;4.90;99.90;;;;;;5091092;28;20730;-78
2021/12/06 09:01:25;;;;;;;21.67;18.52;;;4.90;99.90;;;;;;5090065;28;20242;-78
2021/12/06 09:03:52;;;;;;;22.98;19.38;;;4.90;99.90;;;;;;5092435;28;20222;-78
2021/12/06 09:06:19;;;;;;;19.83;16.95;;;5.00;99.90;;;;;;5087847;28;20216;-78
2021/12/06 09:08:47;;;;;;;20.30;17.52;;;5.00;99.90;;;;;;5088677;28;20287;-79
2021/12/06 09:11:14;;;;;;;23.58;18.42;;;5.00;99.90;;;;;;5085439;28;20199;-78
2021/12/06 09:13:43;;;;;;;20.83;17.05;;;5.00;99.90;;;;;;5079750;28;20734;-78
2021/12/06 09:16:12;;;;;;;21.88;17.85;;;5.00;99.90;;;;;;5090929;28;20202;-79
2021/12/06 09:18:41;;;;;;;22.83;18.83;;;5.00;99.90;;;;;;5088898;28;20257;-78
2021/12/06 09:21:12;;;;;;;19.83;16.85;;;5.00;99.90;;;;;;5090516;28;20196;-78
2021/12/06 09:23:40;;;;;;;21.15;17.83;;;5.00;99.90;;;;;;5090178;28;20303;-78
2021/12/06 09:26:07;;;;;;;21.23;18.50;;;4.90;99.90;;;;;;5086740;28;20631;-78
2021/12/06 09:28:35;;;;;;;22.23;18.65;;;4.80;99.90;;;;;;5071862;28;20247;-78
2021/12/06 09:31:05;;;;;;;22.77;18.83;;;4.80;99.90;;;;;;5083886;28;20241;-77
2021/12/06 09:33:33;;;;;;;23.23;18.42;;;4.90;99.90;;;;;;5099027;28;20304;-77
2021/12/06 09:36:00;;;;;;;24.35;19.60;;;5.00;99.90;;;;;;5090302;28;20199;-78
2021/12/06 09:38:34;;;;;;;21.63;18.40;;;4.90;99.90;;;;;;5088551;28;20626;-77
2021/12/06 09:41:03;;;;;;;20.40;17.83;;;4.90;99.90;;;;;;5092931;28;20195;-77
2021/12/06 09:43:30;;;;;;;20.02;16.50;;;4.90;99.90;;;;;;5078158;28;20706;-78
2021/12/06 09:45:57;;;;;;;19.63;17.25;;;5.00;99.90;;;;;;5090023;28;20219;-77
2021/12/06 09:48:26;;;;;;;19.48;16.83;;;5.10;99.90;;;;;;5090859;28;20211;-77
2021/12/06 09:50:57;;;;;;;19.38;16.40;;;5.00;99.90;;;;;;5093579;28;20195;-78
2021/12/06 09:53:27;;;;;;;17.80;15.75;;;4.90;99.90;;;;;;5084359;28;20306;-78
2021/12/06 09:55:58;;;;;;;19.58;16.40;;;4.90;99.90;;;;;;5091856;28;20698;-77
2021/12/06 09:58:25;;;;;;;19.75;16.23;;;4.70;99.90;;;;;;5091260;28;20279;-77
2021/12/06 10:00:54;;;;;;;19.70;17.17;;;4.60;99.90;;;;;;5085462;28;20306;-78
2021/12/06 10:03:25;;;;;;;18.88;15.60;;;4.60;99.90;;;;;;5090659;28;20223;-77
2021/12/06 10:05:57;;;;;;;21.05;17.88;;;4.80;99.90;;;;;;5089386;28;20228;-77
2021/12/06 10:08:25;;;;;;;19.80;16.80;;;4.90;99.90;;;;;;5088784;28;20248;-77
2021/12/06 10:10:52;;;;;;;18.60;15.98;;;5.00;99.90;;;;;;5074541;28;20199;-77
2021/12/06 10:13:19;;;;;;;19.95;15.45;;;5.10;99.90;;;;;;5084115;28;20303;-78
2021/12/06 10:15:48;;;;;;;18.17;16.20;;;5.00;99.90;;;;;;5086927;28;20323;-77
2021/12/06 10:18:16;;;;;;;17.95;15.32;;;4.80;99.90;;;;;;5087593;28;20204;-77
2021/12/06 10:20:44;;;;;;;18.52;15.45;;;4.80;99.90;;;;;;5090227;28;20202;-77
2021/12/06 10:23:16;;;;;;;18.85;15.45;;;4.80;99.90;;;;;;5077324;28;20215;-77
2021/12/06 10:25:46;;;;;;;17.48;15.20;;;4.60;99.90;;;;;;5079923;28;21160;-78
2021/12/06 10:28:15;;;;;;;17.40;14.25;;;4.60;99.90;;;;;;5086930;28;20214;-78
2021/12/06 10:30:45;;;;;;;17.67;15.85;;;4.70;99.90;;;;;;5091890;28;20223;-78
2021/12/06 10:33:14;;;;;;;12.35;11.15;;;4.90;99.90;;;;;;5089576;28;20212;-77
2021/12/06 10:35:43;;;;;;;14.65;13.13;;;4.80;99.90;;;;;;5091640;28;20192;-78
2021/12/06 10:38:10;;;;;;;16.55;14.85;;;4.70;99.90;;;;;;5092167;28;20275;-78
2021/12/06 10:40:42;;;;;;;16.20;13.93;;;4.70;99.90;;;;;;5089958;28;20635;-78
2021/12/06 10:43:12;;;;;;;15.18;13.40;;;4.70;99.90;;;;;;5091017;28;20226;-78
2021/12/06 10:45:42;;;;;;;14.40;12.77;;;4.80;99.90;;;;;;5075811;28;20234;-78
2021/12/06 10:48:14;;;;;;;15.55;13.07;;;4.90;99.90;;;;;;5091773;28;20702;-78
2021/12/06 10:50:44;;;;;;;16.08;13.73;;;5.00;99.90;;;;;;5092628;28;20611;-78
2021/12/06 10:53:12;;;;;;;15.57;12.82;;;5.40;99.90;;;;;;5082948;28;20255;-78
2021/12/06 10:55:43;;;;;;;15.55;13.85;;;5.80;99.90;;;;;;5073104;28;20245;-78
2021/12/06 10:58:15;;;;;;;13.75;12.25;;;6.30;99.90;;;;;;5086925;28;20288;-78
2021/12/06 11:00:46;;;;;;;13.60;12.18;;;6.30;99.90;;;;;;5082579;28;20200;-78
2021/12/06 11:03:27;;;;;;;12.70;11.38;;;6.00;99.90;;;;;;5083240;28;20739;-77
2021/12/06 11:05:59;;;;;;;13.23;11.82;;;5.80;99.90;;;;;;5084899;28;20223;-78
2021/12/06 11:08:27;;;;;;;14.38;11.68;;;6.10;99.90;;;;;;5100102;28;20219;-77
2021/12/06 11:10:58;;;;;;;13.43;11.77;;;6.50;99.90;;;;;;5106056;28;20188;-77
2021/12/06 11:13:27;;;;;;;12.48;11.20;;;6.50;99.90;;;;;;5099368;28;20211;-77
2021/12/06 11:16:01;;;;;;;11.88;9.70;;;6.40;99.90;;;;;;5098703;28;20700;-77
2021/12/06 11:18:33;;;;;;;13.23;11.80;;;6.30;99.90;;;;;;5091753;28;20278;-77
2021/12/06 11:21:01;;;;;;;14.30;12.90;;;6.40;99.90;;;;;;5101459;28;20198;-76
2021/12/06 11:23:28;;;;;;;14.20;12.70;;;6.50;99.90;;;;;;5106015;28;20279;-77
2021/12/06 11:25:58;;;;;;;16.95;13.75;;;6.60;99.90;;;;;;5094253;28;20310;-77
2021/12/06 11:28:28;;;;;;;16.27;13.43;;;6.80;99.90;;;;;;5103966;28;20227;-77
2021/12/06 11:31:01;;;;;;;14.90;13.38;;;6.90;99.90;;;;;;5094133;28;20271;-78
2021/12/06 11:33:31;;;;;;;13.63;12.13;;;7.10;99.90;;;;;;5086582;28;20221;-78
2021/12/06 11:36:01;;;;;;;12.38;11.18;;;7.30;99.90;;;;;;5079900;28;20215;-78
2021/12/06 11:38:30;;;;;;;11.80;10.60;;;7.40;99.90;;;;;;5091500;28;20192;-78
2021/12/06 11:41:00;;;;;;;10.77;9.55;;;7.50;99.90;;;;;;5081022;28;20207;-77
2021/12/06 11:43:27;;;;;;;13.38;11.85;;;7.40;99.90;;;;;;5075814;28;20308;-78
2021/12/06 11:45:58;;;;;;;15.70;13.27;;;7.40;99.90;;;;;;5079171;28;20248;-78
2021/12/06 11:48:27;;;;;;;12.85;11.57;;;7.40;99.90;;;;;;5077275;28;20662;-77
2021/12/06 11:50:57;;;;;;;13.85;12.00;;;7.40;99.90;;;;;;5083191;28;20204;-77
2021/12/06 11:53:31;;;;;;;14.32;12.90;;;7.40;99.90;;;;;;5078324;28;20219;-77
2021/12/06 11:56:04;;;;;;;13.35;12.05;;;7.40;99.90;;;;;;5080081;28;20634;-78
2021/12/06 11:58:33;;;;;;;14.20;12.73;;;7.40;99.90;;;;;;5088332;28;20279;-78
2021/12/06 12:01:07;;;;;;;13.20;11.90;;;7.50;99.90;;;;;;5083710;28;20205;-77
2021/12/06 12:03:36;;;;;;;14.95;12.07;;;7.50;99.90;;;;;;5079298;28;20215;-77
2021/12/06 12:06:03;;;;;;;12.38;11.18;;;7.50;99.90;;;;;;5076587;28;20228;-78
2021/12/06 12:08:33;;;;;;;13.45;12.00;;;7.30;99.90;;;;;;5078994;28;20207;-78
2021/12/06 12:11:04;;;;;;;14.70;13.10;;;7.20;99.90;;;;;;5082647;28;20206;-78
2021/12/06 12:13:33;;;;;;;16.55;12.98;;;7.10;99.90;;;;;;5087828;28;20208;-78
2021/12/06 12:16:03;;;;;;;14.52;12.27;;;7.00;99.90;;;;;;5089695;28;20204;-78
2021/12/06 12:18:31;;;;;;;11.10;10.00;;;7.00;99.90;;;;;;5087007;28;20583;-78
2021/12/06 12:20:59;;;;;;;12.57;9.85;;;6.90;99.90;;;;;;5087377;28;20200;-78
2021/12/06 12:23:31;;;;;;;14.55;12.18;;;6.90;99.90;;;;;;5084452;28;20307;-78
2021/12/06 12:26:02;;;;;;;13.55;12.15;;;7.20;99.90;;;;;;5079974;28;20254;-79
2021/12/06 12:28:36;;;;;;;14.45;12.50;;;7.30;99.90;;;;;;5082948;28;20195;-79
2021/12/06 12:31:07;;;;;;;15.52;13.93;;;7.40;99.90;;;;;;5087109;28;20286;-78
2021/12/06 12:33:34;;;;;;;16.20;13.70;;;7.40;99.90;;;;;;5091439;28;20208;-79
2021/12/06 12:36:06;;;;;;;15.82;14.02;;;7.40;99.90;;;;;;5083611;28;20869;-79
2021/12/06 12:38:35;;;;;;;15.05;12.73;;;7.40;99.90;;;;;;5082427;28;20204;-80
2021/12/06 12:41:06;;;;;;;14.27;12.88;;;7.40;99.90;;;;;;5082447;28;20216;-80
2021/12/06 12:43:38;;;;;;;14.82;13.23;;;7.40;99.90;;;;;;5086495;28;20223;-79
2021/12/06 12:46:08;;;;;;;10.70;9.70;;;7.40;99.90;;;;;;5082765;28;20212;-83
2021/12/06 12:48:48;;;;;;;11.65;10.45;;;8.10;99.90;;;;;;5089645;28;20752;-87
2021/12/06 12:51:19;;;;;;;10.85;9.75;;;9.20;99.90;;;;;;5076362;28;20200;-87
2021/12/06 12:53:54;;;;;;;11.13;10.02;;;10.00;99.90;;;;;;5060587;28;20221;-88
2021/12/06 12:56:23;;;;;;;9.88;8.77;;;10.50;99.90;;;;;;5084914;28;20239;-79